createdAt,value
2023-04-08T00:01:39.037Z,31.17
2023-04-08T00:04:10.756Z,31.70
2023-04-08T00:06:40.114Z,30.73
2023-04-08T00:09:08.195Z,32.73
2023-04-08T00:11:36.849Z,33.28
2023-04-08T00:14:05.504Z,32.92
2023-04-08T00:16:34.510Z,32.10
2023-04-08T00:19:02.776Z,31.67
2023-04-08T00:21:31.784Z,32.13
2023-04-08T00:24:00.695Z,31.88
2023-04-08T00:26:29.568Z,32.88
2023-04-08T00:28:57.938Z,31.55
2023-04-08T00:31:26.516Z,30.83
2023-04-08T00:33:54.645Z,32.63
2023-04-08T00:36:22.968Z,31.90
2023-04-08T00:38:52.336Z,31.88
2023-04-08T00:41:20.772Z,33.90
2023-04-08T00:43:48.908Z,32.45
2023-04-08T00:46:17.969Z,33.00
2023-04-08T00:49:02.790Z,32.85
2023-04-08T00:51:34.261Z,34.00
2023-04-08T00:54:04.941Z,33.30
2023-04-08T00:56:35.031Z,33.58
2023-04-08T01:01:48.621Z,31.40
2023-04-08T01:04:43.953Z,31.83
2023-04-08T01:07:34.253Z,84.80
2023-04-08T01:10:49.055Z,62.53
2023-04-08T01:13:24.823Z,50.58
2023-04-08T01:15:54.975Z,65.97
2023-04-08T01:20:59.552Z,32.60
2023-04-08T01:23:52.547Z,29.15
2023-04-08T01:29:15.834Z,29.17
2023-04-08T01:31:45.043Z,31.42
2023-04-08T01:34:22.851Z,30.40
2023-04-08T01:37:01.024Z,43.80
2023-04-08T01:39:31.241Z,43.92
2023-04-08T01:42:00.120Z,58.90
2023-04-08T01:44:38.300Z,58.00
2023-04-08T01:47:11.783Z,47.08
2023-04-08T01:49:41.583Z,48.47
2023-04-08T01:52:11.556Z,34.83
2023-04-08T01:54:40.154Z,32.47
2023-04-08T01:57:15.368Z,29.77
2023-04-08T02:02:36.159Z,31.65
2023-04-08T02:05:11.260Z,30.95
2023-04-08T02:07:39.645Z,35.85
2023-04-08T02:10:08.496Z,57.00
2023-04-08T02:12:36.764Z,75.03
2023-04-08T02:15:06.092Z,68.90
2023-04-08T02:20:54.641Z,37.42
2023-04-08T02:23:25.610Z,40.55
2023-04-08T02:28:22.513Z,29.15
2023-04-08T02:30:53.472Z,28.50
2023-04-08T02:33:23.629Z,27.83
2023-04-08T02:35:55.238Z,54.92
2023-04-08T02:38:24.493Z,52.75
2023-04-08T02:40:52.716Z,33.88
2023-04-08T02:43:20.905Z,75.43
2023-04-08T02:45:49.642Z,37.38
2023-04-08T02:48:18.312Z,39.88
2023-04-08T02:50:46.387Z,30.83
2023-04-08T02:53:14.537Z,28.15
2023-04-08T02:56:05.984Z,26.30
2023-04-08T03:04:56.091Z,28.95
2023-04-08T03:07:24.512Z,29.77
2023-04-08T03:09:52.963Z,43.42
2023-04-08T03:12:24.530Z,34.40
2023-04-08T03:14:55.334Z,43.22
2023-04-08T03:17:23.719Z,35.10
2023-04-08T03:19:51.984Z,52.45
2023-04-08T03:22:20.872Z,35.67
2023-04-08T03:24:56.191Z,29.75
2023-04-08T03:27:25.860Z,29.38
2023-04-08T03:29:54.375Z,30.88
2023-04-08T03:32:23.137Z,30.70
2023-04-08T03:34:51.649Z,60.45
2023-04-08T03:37:44.371Z,59.78
2023-04-08T03:40:13.641Z,53.25
2023-04-08T03:42:49.872Z,47.03
2023-04-08T03:45:26.183Z,67.85
2023-04-08T03:50:40.744Z,40.30
2023-04-08T03:53:13.814Z,30.60
2023-04-08T03:55:42.068Z,30.58
2023-04-08T04:02:36.129Z,28.98
2023-04-08T04:05:04.865Z,35.63
2023-04-08T04:10:40.964Z,41.03
2023-04-08T04:13:09.205Z,49.83
2023-04-08T04:15:41.033Z,47.17
2023-04-08T04:18:09.874Z,67.75
2023-04-08T04:20:42.717Z,33.13
2023-04-08T04:23:11.251Z,30.70
2023-04-08T04:25:43.323Z,31.00
2023-04-08T04:28:11.420Z,28.52
2023-04-08T04:30:42.802Z,30.17
2023-04-08T04:33:16.206Z,30.63
2023-04-08T04:35:44.535Z,38.17
2023-04-08T04:38:14.299Z,52.70
2023-04-08T04:43:10.448Z,48.35
2023-04-08T04:45:38.514Z,53.30
2023-04-08T04:48:06.744Z,41.05
2023-04-08T04:50:34.949Z,28.65
2023-04-08T04:53:04.997Z,29.65
2023-04-08T04:55:33.700Z,28.95
2023-04-08T04:58:02.106Z,27.08
2023-04-08T05:00:30.876Z,26.50
2023-04-08T05:03:02.266Z,28.27
2023-04-08T05:05:30.445Z,39.05
2023-04-08T05:08:10.445Z,66.18
2023-04-08T05:10:39.205Z,34.72
2023-04-08T05:13:07.205Z,43.60
2023-04-08T05:15:35.263Z,51.60
2023-04-08T05:18:09.737Z,57.00
2023-04-08T05:20:38.654Z,27.90
2023-04-08T05:23:19.083Z,26.23
2023-04-08T05:25:58.188Z,27.10
2023-04-08T05:28:32.558Z,26.55
2023-04-08T05:31:00.775Z,25.90
2023-04-08T05:33:31.486Z,26.73
2023-04-08T05:36:00.707Z,37.30
2023-04-08T05:38:29.640Z,37.97
2023-04-08T05:40:57.818Z,26.27
2023-04-08T05:43:27.177Z,38.33
2023-04-08T05:45:55.354Z,61.67
2023-04-08T05:51:16.230Z,30.70
2023-04-08T05:53:53.882Z,27.35
2023-04-08T05:56:24.360Z,25.52
2023-04-08T06:01:46.527Z,27.50
2023-04-08T06:04:19.234Z,27.88
2023-04-08T06:07:10.731Z,27.85
2023-04-08T06:09:45.446Z,44.88
2023-04-08T06:12:13.576Z,39.88
2023-04-08T06:14:42.996Z,29.77
2023-04-08T06:17:11.105Z,43.00
2023-04-08T06:19:39.165Z,34.42
2023-04-08T06:22:08.418Z,29.88
2023-04-08T06:24:36.668Z,28.08
2023-04-08T06:29:43.427Z,29.58
2023-04-08T06:32:11.973Z,29.17
2023-04-08T06:34:41.450Z,33.42
2023-04-08T06:37:09.994Z,39.80
2023-04-08T06:39:39.326Z,61.95
2023-04-08T06:42:07.781Z,38.67
2023-04-08T06:44:36.719Z,33.58
2023-04-08T06:47:25.285Z,38.00
2023-04-08T06:49:54.873Z,30.08
2023-04-08T06:52:26.612Z,26.30
2023-04-08T06:55:04.897Z,26.60
2023-04-08T06:57:36.740Z,24.65
2023-04-08T07:00:11.711Z,26.33
2023-04-08T07:02:40.589Z,25.38
2023-04-08T07:05:22.204Z,24.45
2023-04-08T07:07:58.933Z,41.03
2023-04-08T07:10:37.512Z,32.58
2023-04-08T07:13:22.768Z,47.47
2023-04-08T07:15:52.566Z,62.92
2023-04-08T07:18:24.000Z,56.88
2023-04-08T07:20:58.283Z,25.63
2023-04-08T07:23:32.418Z,25.63
2023-04-08T07:26:08.035Z,25.70
2023-04-08T07:28:39.270Z,27.70
2023-04-08T07:31:18.379Z,28.67
2023-04-08T07:33:47.089Z,27.83
2023-04-08T07:36:24.412Z,34.10
2023-04-08T07:38:53.441Z,38.78
2023-04-08T07:41:22.113Z,35.15
2023-04-08T07:43:53.464Z,40.10
2023-04-08T07:46:21.763Z,38.40
2023-04-08T07:49:03.191Z,44.33
2023-04-08T07:51:31.389Z,32.47
2023-04-08T07:54:00.556Z,28.05
2023-04-08T07:56:28.802Z,28.30
2023-04-08T07:58:57.482Z,29.73
2023-04-08T08:01:27.850Z,30.63
2023-04-08T08:03:57.503Z,31.88
2023-04-08T08:06:37.825Z,33.13
2023-04-08T08:09:06.173Z,56.08
2023-04-08T08:11:34.689Z,42.63
2023-04-08T08:14:02.878Z,67.60
2023-04-08T08:16:34.360Z,55.15
2023-04-08T08:19:02.724Z,71.57
2023-04-08T08:21:35.128Z,37.20
2023-04-08T08:24:03.451Z,35.28
2023-04-08T08:26:31.829Z,35.50
2023-04-08T08:28:59.990Z,32.20
2023-04-08T08:31:29.368Z,31.17
2023-04-08T08:33:57.696Z,30.17
2023-04-08T08:36:31.765Z,49.08
2023-04-08T08:39:01.841Z,44.00
2023-04-08T08:41:38.254Z,54.60
2023-04-08T08:44:14.313Z,61.88
2023-04-08T08:46:49.220Z,72.80
2023-04-08T08:49:18.353Z,56.55
2023-04-08T08:51:47.956Z,29.92
2023-04-08T08:54:20.312Z,22.27
2023-04-08T08:56:54.480Z,20.60
2023-04-08T08:59:29.374Z,20.63
2023-04-08T09:01:57.624Z,21.73
2023-04-08T09:04:27.009Z,22.08
2023-04-08T09:07:14.496Z,32.55
2023-04-08T09:09:56.880Z,29.38
2023-04-08T09:12:27.649Z,25.73
2023-04-08T09:15:11.064Z,52.97
2023-04-08T09:17:41.794Z,56.70
2023-04-08T09:20:15.573Z,29.83
2023-04-08T09:23:02.537Z,23.48
2023-04-08T09:25:36.055Z,23.15
2023-04-08T09:28:05.033Z,22.95
2023-04-08T09:30:33.760Z,24.58
2023-04-08T09:33:04.894Z,23.83
2023-04-08T09:35:33.099Z,30.60
2023-04-08T09:38:02.946Z,28.88
2023-04-08T09:40:36.124Z,34.63
2023-04-08T09:43:17.184Z,39.10
2023-04-08T09:45:48.700Z,45.22
2023-04-08T09:48:29.876Z,55.33
2023-04-08T09:51:00.246Z,30.65
2023-04-08T09:53:36.036Z,28.27
2023-04-08T09:56:11.334Z,29.02
2023-04-08T09:58:46.455Z,29.13
2023-04-08T10:01:19.080Z,29.75
2023-04-08T10:03:53.659Z,28.88
2023-04-08T10:06:28.383Z,28.70
2023-04-08T10:09:00.402Z,31.45
2023-04-08T10:11:28.790Z,31.40
2023-04-08T10:13:56.956Z,33.08
2023-04-08T10:16:27.825Z,31.85
2023-04-08T10:18:57.033Z,32.67
2023-04-08T10:21:39.189Z,31.30
2023-04-08T10:24:13.300Z,31.90
2023-04-08T10:26:46.359Z,32.50
2023-04-08T10:29:21.975Z,31.67
2023-04-08T10:31:53.678Z,33.97
2023-04-08T10:34:28.380Z,34.00
2023-04-08T10:36:59.648Z,33.47
2023-04-08T10:39:28.522Z,33.13
2023-04-08T10:41:56.754Z,31.97
2023-04-08T10:44:27.152Z,32.28
2023-04-08T10:46:56.054Z,32.47
2023-04-08T10:49:33.484Z,31.07
2023-04-08T10:52:02.065Z,31.13
2023-04-08T10:54:30.351Z,30.65
2023-04-08T10:56:58.397Z,32.58
2023-04-08T10:59:36.040Z,31.75
2023-04-08T11:02:04.344Z,32.35
2023-04-08T11:04:33.479Z,31.75
2023-04-08T11:07:06.000Z,32.85
2023-04-08T11:09:35.907Z,32.65
2023-04-08T11:12:04.243Z,33.63
2023-04-08T11:14:33.509Z,31.40
2023-04-08T11:17:02.776Z,32.20
2023-04-08T11:19:30.890Z,31.45
2023-04-08T11:21:59.618Z,33.08
2023-04-08T11:24:27.666Z,32.08
2023-04-08T11:26:55.997Z,35.17
2023-04-08T11:29:24.150Z,33.83
2023-04-08T11:31:53.267Z,33.22
2023-04-08T11:34:25.547Z,35.53
2023-04-08T11:36:53.787Z,35.20
2023-04-08T11:39:24.366Z,35.95
2023-04-08T11:41:53.445Z,36.28
2023-04-08T11:44:30.354Z,34.47
2023-04-08T11:46:58.955Z,34.90
2023-04-08T11:49:27.080Z,33.95
2023-04-08T11:52:03.784Z,34.88
2023-04-08T11:54:33.785Z,36.75
2023-04-08T11:57:04.080Z,36.20
2023-04-08T11:59:33.632Z,36.92
2023-04-08T12:02:02.356Z,37.05
2023-04-08T12:04:30.784Z,38.35
2023-04-08T12:06:59.281Z,36.85
2023-04-08T12:09:27.760Z,37.35
2023-04-08T12:11:57.587Z,37.92
2023-04-08T12:16:56.907Z,37.53
2023-04-08T12:19:25.172Z,38.30
2023-04-08T12:21:53.151Z,40.45
2023-04-08T12:24:23.010Z,38.85
2023-04-08T12:29:18.573Z,40.15
2023-04-08T12:31:46.984Z,40.40
2023-04-08T12:34:15.880Z,40.70
2023-04-08T12:36:45.126Z,39.88
2023-04-08T12:39:13.142Z,41.00
2023-04-08T12:41:41.199Z,40.13
2023-04-08T12:44:09.333Z,40.67
2023-04-08T12:46:37.372Z,40.30
2023-04-08T12:49:06.056Z,39.58
2023-04-08T12:51:35.041Z,41.10
2023-04-08T12:54:04.260Z,41.03
2023-04-08T12:56:32.799Z,43.05
2023-04-08T12:59:02.437Z,41.67
2023-04-08T13:01:31.162Z,42.25
2023-04-08T13:03:59.581Z,45.85
2023-04-08T13:06:28.437Z,43.95
2023-04-08T13:08:56.802Z,43.60
2023-04-08T13:11:24.809Z,45.00
2023-04-08T13:13:53.614Z,43.35
2023-04-08T13:16:22.886Z,44.40
2023-04-08T13:18:51.316Z,43.92
2023-04-08T13:21:19.602Z,44.10
2023-04-08T13:23:48.362Z,44.70
2023-04-08T13:26:17.212Z,45.15
2023-04-08T13:31:18.170Z,43.90
2023-04-08T13:33:46.172Z,44.38
2023-04-08T13:36:14.250Z,43.40
2023-04-08T13:38:42.278Z,45.35
2023-04-08T13:41:10.232Z,43.20
2023-04-08T13:43:38.248Z,43.25
2023-04-08T13:46:06.597Z,43.47
2023-04-08T13:48:34.557Z,43.90
2023-04-08T13:51:02.540Z,43.28
2023-04-08T13:53:30.761Z,46.20
2023-04-08T13:55:59.368Z,43.85
2023-04-08T13:58:27.417Z,41.67
2023-04-08T14:00:56.060Z,42.78
2023-04-08T14:03:24.132Z,42.00
2023-04-08T14:05:52.621Z,41.38
2023-04-08T14:08:26.634Z,42.80
2023-04-08T14:10:57.810Z,43.78
2023-04-08T14:13:25.938Z,41.33
2023-04-08T14:15:55.306Z,41.85
2023-04-08T14:18:23.592Z,44.38
2023-04-08T14:20:51.584Z,43.22
2023-04-08T14:23:20.461Z,44.03
2023-04-08T14:25:48.370Z,44.65
2023-04-08T14:28:17.202Z,45.13
2023-04-08T14:30:45.277Z,42.85
2023-04-08T14:33:13.837Z,44.75
2023-04-08T14:35:42.073Z,44.38
2023-04-08T14:38:10.628Z,46.00
2023-04-08T14:40:38.587Z,47.10
2023-04-08T14:43:06.914Z,46.22
2023-04-08T14:45:34.935Z,46.10
2023-04-08T14:48:03.078Z,42.55
2023-04-08T14:50:31.951Z,41.80
2023-04-08T14:53:00.373Z,41.13
2023-04-08T14:55:30.152Z,39.03
2023-04-08T15:00:29.109Z,39.13
2023-04-08T15:02:57.516Z,38.55
2023-04-08T15:05:25.915Z,38.22
2023-04-08T15:07:54.746Z,36.33
2023-04-08T15:10:22.911Z,38.55
2023-04-08T15:12:51.030Z,37.88
2023-04-08T15:15:19.105Z,36.55
2023-04-08T15:17:47.246Z,39.47
2023-04-08T15:20:15.391Z,39.83
2023-04-08T15:22:43.606Z,39.22
2023-04-08T15:25:12.200Z,38.45
2023-04-08T15:27:41.872Z,36.95
2023-04-08T15:30:12.372Z,35.78
2023-04-08T15:32:41.774Z,36.92
2023-04-08T15:35:10.341Z,37.63
2023-04-08T15:37:38.500Z,37.55
2023-04-08T15:40:07.698Z,35.55
2023-04-08T15:42:36.230Z,34.30
2023-04-08T15:45:08.201Z,35.47
2023-04-08T15:47:36.230Z,34.10
2023-04-08T15:50:04.600Z,33.35
2023-04-08T15:52:35.368Z,32.83
2023-04-08T15:55:03.433Z,33.70
2023-04-08T15:57:32.531Z,32.65
2023-04-08T16:00:00.840Z,32.67
2023-04-08T16:02:29.122Z,32.78
2023-04-08T16:04:58.181Z,33.78
2023-04-08T16:07:26.468Z,32.23
2023-04-08T16:09:54.713Z,33.50
2023-04-08T16:12:23.824Z,35.25
2023-04-08T16:14:52.091Z,35.60
2023-04-08T16:17:20.276Z,38.78
2023-04-08T16:19:48.340Z,34.88
2023-04-08T16:22:16.420Z,35.33
2023-04-08T16:24:44.524Z,35.20
2023-04-08T16:27:12.791Z,34.08
2023-04-08T16:29:41.038Z,35.22
2023-04-08T16:32:09.314Z,35.33
2023-04-08T16:34:37.715Z,33.53
2023-04-08T16:37:05.820Z,34.00
2023-04-08T16:39:33.880Z,34.22
2023-04-08T16:42:02.249Z,32.17
2023-04-08T16:44:30.364Z,30.90
2023-04-08T16:46:58.403Z,31.13
2023-04-08T16:49:26.488Z,30.77
2023-04-08T16:51:55.417Z,30.48
2023-04-08T16:54:23.574Z,31.35
2023-04-08T16:56:51.699Z,32.30
2023-04-08T16:59:19.992Z,33.20
2023-04-08T17:01:49.637Z,30.20
2023-04-08T17:04:17.919Z,27.85
2023-04-08T17:06:46.309Z,29.40
2023-04-08T17:09:14.646Z,31.00
2023-04-08T17:11:42.969Z,32.15
2023-04-08T17:14:11.929Z,34.40
2023-04-08T17:16:40.090Z,32.80
2023-04-08T17:19:08.197Z,32.70
2023-04-08T17:21:36.530Z,31.38
2023-04-08T17:24:04.662Z,33.53
2023-04-08T17:26:33.016Z,35.15
2023-04-08T17:29:01.129Z,34.00
2023-04-08T17:31:29.682Z,35.30
2023-04-08T17:33:57.761Z,34.58
2023-04-08T17:36:26.487Z,32.85
2023-04-08T17:38:55.597Z,32.65
2023-04-08T17:41:38.445Z,32.25
2023-04-08T17:44:07.605Z,33.30
2023-04-08T17:46:35.926Z,34.00
2023-04-08T17:49:03.965Z,33.78
2023-04-08T17:51:33.145Z,34.40
2023-04-08T17:54:01.319Z,35.60
2023-04-08T17:56:29.393Z,35.17
2023-04-08T17:58:57.446Z,36.20
2023-04-08T18:01:26.362Z,36.67
2023-04-08T18:03:54.829Z,36.38
2023-04-08T18:06:23.197Z,37.20
2023-04-08T18:08:51.290Z,36.78
2023-04-08T18:11:20.195Z,35.65
2023-04-08T18:13:49.159Z,37.83
2023-04-08T18:16:18.643Z,38.00
2023-04-08T18:18:47.480Z,37.08
2023-04-08T18:21:18.457Z,39.03
2023-04-08T18:23:50.058Z,37.90
2023-04-08T18:26:18.510Z,35.67
2023-04-08T18:28:46.676Z,36.33
2023-04-08T18:31:14.877Z,37.70
2023-04-08T18:33:44.011Z,37.08
2023-04-08T18:36:14.108Z,38.13
2023-04-08T18:38:42.408Z,36.92
2023-04-08T18:41:10.733Z,36.60
2023-04-08T18:43:38.764Z,36.10
2023-04-08T18:46:07.291Z,36.30
2023-04-08T18:48:35.953Z,35.13
2023-04-08T18:51:04.189Z,33.75
2023-04-08T18:53:32.425Z,32.22
2023-04-08T18:56:00.921Z,33.30
2023-04-08T18:58:29.003Z,32.70
2023-04-08T19:00:57.118Z,32.60
2023-04-08T19:03:27.450Z,32.20
2023-04-08T19:05:55.726Z,31.80
2023-04-08T19:08:24.428Z,32.40
2023-04-08T19:10:52.464Z,31.98
2023-04-08T19:13:22.469Z,31.55
2023-04-08T19:18:19.142Z,31.98
2023-04-08T19:20:47.584Z,32.67
2023-04-08T19:23:17.281Z,32.85
2023-04-08T19:25:46.480Z,33.75
2023-04-08T19:28:14.775Z,33.60
2023-04-08T19:30:42.994Z,31.98
2023-04-08T19:33:11.859Z,32.30
2023-04-08T19:35:40.090Z,31.27
2023-04-08T19:38:08.610Z,30.33
2023-04-08T19:40:36.923Z,31.02
2023-04-08T19:43:05.328Z,29.13
2023-04-08T19:45:34.296Z,27.70
2023-04-08T19:48:02.598Z,26.17
2023-04-08T19:50:30.703Z,26.58
2023-04-08T19:52:58.815Z,25.50
2023-04-08T19:55:26.982Z,24.27
2023-04-08T19:57:55.886Z,24.63
2023-04-08T20:00:25.323Z,25.05
2023-04-08T20:02:53.491Z,25.40
2023-04-08T20:05:21.981Z,23.98
2023-04-08T20:07:50.017Z,23.70
2023-04-08T20:10:19.005Z,23.73
2023-04-08T20:12:47.339Z,24.02
2023-04-08T20:15:24.136Z,24.00
2023-04-08T20:17:53.689Z,23.67
2023-04-08T20:20:23.062Z,23.00
2023-04-08T20:22:51.301Z,24.77
2023-04-08T20:25:20.696Z,23.58
2023-04-08T20:27:48.696Z,24.10
2023-04-08T20:30:16.929Z,24.48
2023-04-08T20:32:45.037Z,24.70
2023-04-08T20:35:13.676Z,24.58
2023-04-08T20:37:42.121Z,24.25
2023-04-08T20:40:12.048Z,24.52
2023-04-08T20:42:40.129Z,24.27
2023-04-08T20:45:08.877Z,23.80
2023-04-08T20:47:37.003Z,22.55
2023-04-08T20:50:06.677Z,21.90
2023-04-08T20:52:34.707Z,20.20
2023-04-08T20:55:02.731Z,21.20
2023-04-08T20:57:30.731Z,18.42
2023-04-08T20:59:58.822Z,18.27
2023-04-08T21:02:27.019Z,19.25
2023-04-08T21:04:55.108Z,17.85
2023-04-08T21:07:26.419Z,19.80
2023-04-08T21:09:54.478Z,18.60
2023-04-08T21:12:22.551Z,17.73
2023-04-08T21:14:51.136Z,18.85
2023-04-08T21:17:19.263Z,17.70
2023-04-08T21:19:47.275Z,18.13
2023-04-08T21:22:16.666Z,17.48
2023-04-08T21:24:44.653Z,17.52
2023-04-08T21:27:12.753Z,17.95
2023-04-08T21:29:40.730Z,17.77
2023-04-08T21:32:08.817Z,18.30
2023-04-08T21:34:37.069Z,17.83
2023-04-08T21:37:06.068Z,17.73
2023-04-08T21:39:34.114Z,18.55
2023-04-08T21:42:02.265Z,16.75
2023-04-08T21:44:30.359Z,17.00
2023-04-08T21:47:00.399Z,15.60
2023-04-08T21:49:32.637Z,15.95
2023-04-08T21:52:00.595Z,16.50
2023-04-08T21:54:29.318Z,15.32
2023-04-08T21:56:57.488Z,15.20
2023-04-08T21:59:25.569Z,14.85
2023-04-08T22:01:53.574Z,14.85
2023-04-08T22:04:22.846Z,15.00
2023-04-08T22:06:51.440Z,15.30
2023-04-08T22:09:20.088Z,15.27
2023-04-08T22:11:48.145Z,15.02
2023-04-08T22:14:17.603Z,13.85
2023-04-08T22:16:45.615Z,15.20
2023-04-08T22:19:13.700Z,13.90
2023-04-08T22:21:41.973Z,14.15
2023-04-08T22:24:09.950Z,13.63
2023-04-08T22:26:37.956Z,14.10
2023-04-08T22:29:06.013Z,13.25
2023-04-08T22:31:34.256Z,13.07
2023-04-08T22:34:02.329Z,13.98
2023-04-08T22:36:30.449Z,14.40
2023-04-08T22:38:58.375Z,14.73
2023-04-08T22:41:26.495Z,14.13
2023-04-08T22:43:54.534Z,13.02
2023-04-08T22:46:22.797Z,13.90
2023-04-08T22:48:51.185Z,13.77
2023-04-08T22:51:19.770Z,14.10
2023-04-08T22:53:47.832Z,13.15
2023-04-08T22:58:44.081Z,12.30
2023-04-08T23:01:18.694Z,13.63
2023-04-08T23:03:47.442Z,13.85
2023-04-08T23:06:15.681Z,13.40
2023-04-08T23:08:44.143Z,13.75
2023-04-08T23:11:12.306Z,13.60
2023-04-08T23:13:41.070Z,12.77
2023-04-08T23:16:10.327Z,12.95
2023-04-08T23:18:39.465Z,12.93
2023-04-08T23:21:07.488Z,13.63
2023-04-08T23:23:35.538Z,13.95
2023-04-08T23:26:03.640Z,13.60
2023-04-08T23:28:31.642Z,12.60
2023-04-08T23:30:59.623Z,13.43
2023-04-08T23:33:27.665Z,13.27
2023-04-08T23:35:55.683Z,13.65
2023-04-08T23:38:23.679Z,13.55
2023-04-08T23:40:51.745Z,13.32
2023-04-08T23:43:19.712Z,12.93
2023-04-08T23:45:47.687Z,12.90
2023-04-08T23:48:15.769Z,11.93
2023-04-08T23:50:43.756Z,12.48
2023-04-08T23:53:11.763Z,12.75
2023-04-08T23:55:39.957Z,12.23
2023-04-08T23:58:07.934Z,12.75
